createdAt,value
2022-10-19T00:00:18.056Z,7.90
2022-10-19T00:01:18.256Z,7.50
2022-10-19T00:02:18.433Z,5.30
2022-10-19T00:03:22.263Z,6.60
2022-10-19T00:04:18.737Z,7.40
2022-10-19T00:05:18.904Z,6.90
2022-10-19T00:06:19.068Z,7.30
2022-10-19T00:07:19.252Z,7.80
2022-10-19T00:08:19.409Z,8.80
2022-10-19T00:09:19.601Z,7.60
2022-10-19T00:10:19.758Z,7.70
2022-10-19T00:11:19.920Z,8.10
2022-10-19T00:12:20.091Z,8.50
2022-10-19T00:13:20.246Z,9.30
2022-10-19T00:14:20.450Z,6.40
2022-10-19T00:15:20.609Z,7.30
2022-10-19T00:16:20.779Z,8.70
2022-10-19T00:17:20.951Z,6.50
2022-10-19T00:18:21.112Z,8.40
2022-10-19T00:19:21.271Z,7.80
2022-10-19T00:20:21.430Z,6.10
2022-10-19T00:21:21.591Z,6.90
2022-10-19T00:22:21.762Z,8.20
2022-10-19T00:23:21.912Z,8.60
2022-10-19T00:24:22.081Z,7.50
2022-10-19T00:25:22.237Z,5.40
2022-10-19T00:26:22.393Z,6.90
2022-10-19T00:27:22.601Z,8.60
2022-10-19T00:28:22.765Z,7.30
2022-10-19T00:29:22.920Z,7.10
2022-10-19T00:30:23.114Z,9.50
2022-10-19T00:31:23.275Z,6.30
2022-10-19T00:32:23.458Z,6.40
2022-10-19T00:33:23.604Z,6.90
2022-10-19T00:34:23.795Z,9.60
2022-10-19T00:35:23.985Z,7.10
2022-10-19T00:36:24.147Z,6.60
2022-10-19T00:37:24.316Z,6.80
2022-10-19T00:38:24.469Z,5.80
2022-10-19T00:39:24.737Z,7.10
2022-10-19T00:40:24.848Z,7.40
2022-10-19T00:41:25.007Z,6.40
2022-10-19T00:42:25.183Z,7.60
2022-10-19T00:43:25.339Z,6.90
2022-10-19T00:44:25.498Z,7.30
2022-10-19T00:45:25.657Z,8.20
2022-10-19T00:46:25.851Z,7.80
2022-10-19T00:47:26.071Z,8.00
2022-10-19T00:48:26.191Z,6.50
2022-10-19T00:49:26.359Z,7.30
2022-10-19T00:50:26.515Z,7.10
2022-10-19T00:51:26.701Z,7.60
2022-10-19T00:52:26.910Z,6.50
2022-10-19T00:53:27.061Z,8.00
2022-10-19T00:54:27.254Z,7.20
2022-10-19T00:55:27.411Z,5.20
2022-10-19T00:56:27.602Z,6.60
2022-10-19T00:57:27.777Z,5.20
2022-10-19T00:58:27.931Z,7.80
2022-10-19T00:59:28.093Z,6.40
2022-10-19T01:00:28.250Z,7.00
2022-10-19T01:01:28.505Z,6.50
2022-10-19T01:02:28.656Z,7.40
2022-10-19T01:03:28.783Z,7.40
2022-10-19T01:04:28.945Z,6.00
2022-10-19T01:05:29.102Z,8.80
2022-10-19T01:06:29.255Z,7.10
2022-10-19T01:07:29.426Z,6.50
2022-10-19T01:08:29.591Z,6.10
2022-10-19T01:09:29.748Z,6.80
2022-10-19T01:10:29.936Z,6.60
2022-10-19T01:11:30.104Z,6.90
2022-10-19T01:12:30.265Z,5.70
2022-10-19T01:13:30.420Z,6.90
2022-10-19T01:14:30.617Z,6.60
2022-10-19T01:15:30.768Z,5.40
2022-10-19T01:16:30.977Z,5.50
2022-10-19T01:17:31.366Z,7.20
2022-10-19T01:18:31.328Z,6.10
2022-10-19T01:19:31.483Z,6.80
2022-10-19T01:20:31.675Z,7.60
2022-10-19T01:21:31.866Z,6.90
2022-10-19T01:22:32.002Z,6.40
2022-10-19T01:23:32.150Z,7.20
2022-10-19T01:24:34.805Z,6.00
2022-10-19T01:25:32.475Z,5.80
2022-10-19T01:26:32.651Z,7.90
2022-10-19T01:27:33.084Z,8.00
2022-10-19T01:28:33.017Z,6.40
2022-10-19T01:29:33.152Z,7.00
2022-10-19T01:30:33.351Z,7.10
2022-10-19T01:31:33.529Z,8.00
2022-10-19T01:32:33.690Z,7.10
2022-10-19T01:33:33.846Z,4.90
2022-10-19T01:34:34.039Z,7.60
2022-10-19T01:35:34.198Z,5.90
2022-10-19T01:36:34.373Z,5.10
2022-10-19T01:37:34.767Z,6.40
2022-10-19T01:38:34.722Z,6.40
2022-10-19T01:39:34.875Z,7.40
2022-10-19T01:40:35.071Z,8.20
2022-10-19T01:41:35.242Z,6.40
2022-10-19T01:42:35.412Z,7.70
2022-10-19T01:43:35.565Z,6.40
2022-10-19T01:44:35.726Z,7.80
2022-10-19T01:45:35.883Z,6.60
2022-10-19T01:46:36.097Z,5.60
2022-10-19T01:47:36.531Z,7.30
2022-10-19T01:48:36.437Z,7.50
2022-10-19T01:49:36.598Z,8.00
2022-10-19T01:50:36.772Z,6.50
2022-10-19T01:51:36.931Z,6.40
2022-10-19T01:52:37.176Z,6.70
2022-10-19T01:53:37.248Z,6.50
2022-10-19T01:54:37.417Z,7.30
2022-10-19T01:55:37.570Z,5.70
2022-10-19T01:56:37.761Z,6.80
2022-10-19T01:57:37.920Z,6.10
2022-10-19T01:58:38.100Z,7.10
2022-10-19T01:59:38.263Z,4.90
2022-10-19T02:00:38.442Z,6.00
2022-10-19T02:01:38.594Z,8.10
2022-10-19T02:02:38.754Z,6.00
2022-10-19T02:03:38.907Z,6.50
2022-10-19T02:04:39.062Z,7.50
2022-10-19T02:05:39.236Z,7.30
2022-10-19T02:06:39.394Z,5.60
2022-10-19T02:07:39.556Z,5.90
2022-10-19T02:08:39.713Z,5.90
2022-10-19T02:09:39.875Z,6.90
2022-10-19T02:10:40.066Z,6.20
2022-10-19T02:11:40.203Z,5.60
2022-10-19T02:12:40.400Z,6.30
2022-10-19T02:13:40.556Z,6.20
2022-10-19T02:14:40.756Z,5.70
2022-10-19T02:15:40.926Z,6.90
2022-10-19T02:16:41.088Z,6.00
2022-10-19T02:17:41.266Z,5.60
2022-10-19T02:18:41.431Z,5.50
2022-10-19T02:19:41.598Z,5.20
2022-10-19T02:20:41.769Z,6.00
2022-10-19T02:21:41.917Z,5.90
2022-10-19T02:22:42.080Z,7.00
2022-10-19T02:23:42.239Z,6.90
2022-10-19T02:24:42.430Z,4.80
2022-10-19T02:25:42.556Z,6.10
2022-10-19T02:26:42.720Z,6.70
2022-10-19T02:27:42.885Z,5.00
2022-10-19T02:28:43.038Z,6.50
2022-10-19T02:29:43.219Z,5.40
2022-10-19T02:30:43.379Z,4.30
2022-10-19T02:31:43.530Z,6.60
2022-10-19T02:32:43.691Z,7.00
2022-10-19T02:33:43.842Z,5.20
2022-10-19T02:34:44.052Z,6.00
2022-10-19T02:35:44.207Z,6.30
2022-10-19T02:36:44.361Z,4.80
2022-10-19T02:37:44.558Z,4.90
2022-10-19T02:38:44.713Z,5.80
2022-10-19T02:39:44.884Z,4.80
2022-10-19T02:40:45.048Z,5.70
2022-10-19T02:41:45.226Z,6.40
2022-10-19T02:42:45.387Z,5.50
2022-10-19T02:43:45.544Z,8.30
2022-10-19T02:44:45.714Z,5.00
2022-10-19T02:45:45.874Z,6.60
2022-10-19T02:46:46.037Z,6.90
2022-10-19T02:47:46.196Z,7.80
2022-10-19T02:48:46.356Z,5.60
2022-10-19T02:49:46.532Z,8.70
2022-10-19T02:50:46.689Z,6.80
2022-10-19T02:51:46.867Z,4.70
2022-10-19T02:52:47.026Z,5.00
2022-10-19T02:53:47.186Z,5.50
2022-10-19T02:54:47.370Z,4.80
2022-10-19T02:55:47.540Z,4.20
2022-10-19T02:56:47.703Z,6.40
2022-10-19T02:57:47.867Z,5.10
2022-10-19T02:58:48.050Z,6.20
2022-10-19T02:59:48.226Z,5.20
2022-10-19T03:00:48.416Z,4.90
2022-10-19T03:01:48.570Z,5.90
2022-10-19T03:02:48.738Z,5.80
2022-10-19T03:03:48.891Z,6.40
2022-10-19T03:04:49.079Z,5.10
2022-10-19T03:05:49.223Z,5.20
2022-10-19T03:06:49.422Z,6.90
2022-10-19T03:07:49.573Z,4.10
2022-10-19T03:08:49.752Z,6.20
2022-10-19T03:09:49.912Z,5.90
2022-10-19T03:10:50.072Z,5.70
2022-10-19T03:11:50.274Z,4.80
2022-10-19T03:12:50.432Z,5.70
2022-10-19T03:13:50.590Z,6.10
2022-10-19T03:14:50.774Z,4.60
2022-10-19T03:15:50.944Z,6.00
2022-10-19T03:16:51.102Z,5.10
2022-10-19T03:17:51.256Z,5.40
2022-10-19T03:18:51.451Z,4.40
2022-10-19T03:19:51.608Z,7.90
2022-10-19T03:20:51.787Z,7.10
2022-10-19T03:21:51.975Z,5.50
2022-10-19T03:23:52.282Z,5.80
2022-10-19T03:24:52.462Z,6.00
2022-10-19T03:25:52.606Z,5.30
2022-10-19T03:26:52.826Z,5.90
2022-10-19T03:27:52.983Z,6.40
2022-10-19T03:28:53.171Z,4.80
2022-10-19T03:29:53.338Z,6.40
2022-10-19T03:30:53.498Z,7.00
2022-10-19T03:31:53.659Z,4.80
2022-10-19T03:32:53.820Z,6.80
2022-10-19T03:33:53.973Z,4.80
2022-10-19T03:34:54.130Z,6.70
2022-10-19T03:35:54.290Z,5.80
2022-10-19T03:36:54.490Z,5.20
2022-10-19T03:37:54.649Z,5.00
2022-10-19T03:38:54.805Z,6.90
2022-10-19T03:39:54.990Z,5.10
2022-10-19T03:40:55.197Z,6.60
2022-10-19T03:41:55.341Z,7.90
2022-10-19T03:42:55.553Z,5.90
2022-10-19T03:43:55.735Z,5.20
2022-10-19T03:44:55.899Z,5.20
2022-10-19T03:45:56.063Z,5.40
2022-10-19T03:46:56.223Z,5.20
2022-10-19T03:47:56.384Z,5.90
2022-10-19T03:48:56.543Z,4.40
2022-10-19T03:49:56.703Z,5.30
2022-10-19T03:50:56.908Z,7.90
2022-10-19T03:51:57.069Z,7.10
2022-10-19T03:52:57.269Z,7.80
2022-10-19T03:53:57.395Z,5.50
2022-10-19T03:54:57.556Z,6.00
2022-10-19T03:55:57.725Z,5.40
2022-10-19T03:56:57.897Z,6.90
2022-10-19T03:57:58.055Z,6.00
2022-10-19T03:58:58.244Z,8.10
2022-10-19T03:59:58.397Z,5.60
2022-10-19T04:00:58.712Z,5.60
2022-10-19T04:01:58.778Z,6.70
2022-10-19T04:02:58.942Z,7.80
2022-10-19T04:03:59.100Z,6.90
2022-10-19T04:04:59.270Z,5.20
2022-10-19T04:05:59.440Z,4.10
2022-10-19T04:06:59.592Z,4.50
2022-10-19T04:07:59.749Z,5.80
2022-10-19T04:08:59.909Z,4.90
2022-10-19T04:10:00.064Z,5.60
2022-10-19T04:11:00.242Z,4.60
2022-10-19T04:12:00.411Z,5.40
2022-10-19T04:13:00.571Z,5.90
2022-10-19T04:14:00.804Z,5.40
2022-10-19T04:15:00.900Z,5.60
2022-10-19T04:16:01.072Z,5.70
2022-10-19T04:17:01.232Z,6.10
2022-10-19T04:18:01.393Z,5.50
2022-10-19T04:19:01.569Z,5.10
2022-10-19T04:20:01.716Z,6.10
2022-10-19T04:21:01.919Z,4.50
2022-10-19T04:22:02.037Z,6.80
2022-10-19T04:23:02.214Z,6.90
2022-10-19T04:24:02.355Z,5.30
2022-10-19T04:25:02.508Z,4.10
2022-10-19T04:26:02.735Z,5.00
2022-10-19T04:27:02.886Z,4.70
2022-10-19T04:28:03.076Z,4.30
2022-10-19T04:29:03.314Z,4.40
2022-10-19T04:30:03.419Z,5.20
2022-10-19T04:31:03.586Z,5.70
2022-10-19T04:32:03.762Z,6.40
2022-10-19T04:33:03.917Z,4.10
2022-10-19T04:34:04.109Z,4.70
2022-10-19T04:35:04.268Z,6.20
2022-10-19T04:36:04.458Z,5.80
2022-10-19T04:37:04.647Z,6.00
2022-10-19T04:38:04.800Z,5.10
2022-10-19T04:39:04.962Z,5.30
2022-10-19T04:40:05.120Z,4.10
2022-10-19T04:41:05.278Z,5.10
2022-10-19T04:42:12.475Z,4.90
2022-10-19T04:43:05.626Z,7.40
2022-10-19T04:44:05.823Z,5.20
2022-10-19T04:45:05.982Z,5.00
2022-10-19T04:46:06.165Z,6.50
2022-10-19T04:47:06.326Z,5.60
2022-10-19T04:48:06.556Z,4.90
2022-10-19T04:49:06.725Z,6.00
2022-10-19T04:50:06.875Z,3.80
2022-10-19T04:51:07.016Z,3.40
2022-10-19T04:52:07.209Z,5.40
2022-10-19T04:53:07.383Z,3.20
2022-10-19T04:54:07.539Z,4.30
2022-10-19T04:55:07.701Z,4.00
2022-10-19T04:56:07.895Z,5.60
2022-10-19T04:57:08.056Z,4.80
2022-10-19T04:58:08.220Z,4.30
2022-10-19T04:59:08.379Z,6.30
2022-10-19T05:00:08.538Z,4.60
2022-10-19T05:01:08.771Z,4.40
2022-10-19T05:02:08.879Z,4.30
2022-10-19T05:03:09.041Z,4.00
2022-10-19T05:04:09.201Z,4.40
2022-10-19T05:05:09.359Z,6.30
2022-10-19T05:06:09.540Z,4.20
2022-10-19T05:07:09.701Z,6.10
2022-10-19T05:08:09.862Z,4.90
2022-10-19T05:09:10.031Z,4.20
2022-10-19T05:10:10.183Z,5.00
2022-10-19T05:11:10.352Z,4.20
2022-10-19T05:12:10.512Z,5.60
2022-10-19T05:13:10.663Z,4.10
2022-10-19T05:14:10.855Z,5.30
2022-10-19T05:15:11.014Z,5.50
2022-10-19T05:16:11.194Z,4.60
2022-10-19T05:17:11.355Z,4.90
2022-10-19T05:18:11.514Z,3.50
2022-10-19T05:19:11.674Z,5.60
2022-10-19T05:20:11.825Z,6.80
2022-10-19T05:21:12.035Z,4.90
2022-10-19T05:22:12.195Z,4.70
2022-10-19T05:23:12.355Z,4.00
2022-10-19T05:24:12.560Z,4.70
2022-10-19T05:25:12.716Z,5.20
2022-10-19T05:26:12.897Z,3.30
2022-10-19T05:27:13.046Z,5.70
2022-10-19T05:28:13.237Z,4.50
2022-10-19T05:29:13.399Z,8.50
2022-10-19T05:30:13.587Z,6.20
2022-10-19T05:31:14.037Z,7.10
2022-10-19T05:32:13.938Z,7.70
2022-10-19T05:33:14.088Z,6.10
2022-10-19T05:34:14.290Z,8.50
2022-10-19T05:35:17.462Z,6.70
2022-10-19T05:36:15.654Z,7.70
2022-10-19T05:37:14.832Z,7.30
2022-10-19T05:38:14.989Z,7.90
2022-10-19T05:39:15.155Z,5.70
2022-10-19T05:40:15.314Z,8.00
2022-10-19T05:41:15.502Z,8.60
2022-10-19T05:42:15.691Z,7.80
2022-10-19T05:43:15.861Z,9.00
2022-10-19T05:44:16.022Z,8.20
2022-10-19T05:45:16.183Z,7.20
2022-10-19T05:46:16.343Z,8.60
2022-10-19T05:47:16.514Z,7.60
2022-10-19T05:48:16.671Z,6.80
2022-10-19T05:49:16.822Z,7.80
2022-10-19T05:50:16.995Z,7.00
2022-10-19T05:51:17.154Z,6.90
2022-10-19T05:52:17.345Z,6.30
2022-10-19T05:53:17.484Z,7.00
2022-10-19T05:54:17.665Z,6.80
2022-10-19T05:55:17.855Z,7.50
2022-10-19T05:56:17.999Z,6.70
2022-10-19T05:57:18.224Z,6.60
2022-10-19T05:58:18.445Z,7.50
2022-10-19T05:59:18.544Z,7.50
2022-10-19T06:00:18.731Z,8.70
2022-10-19T06:01:18.924Z,6.50
2022-10-19T06:02:19.106Z,6.90
2022-10-19T06:03:19.256Z,6.90
2022-10-19T06:04:19.408Z,6.20
2022-10-19T06:05:19.580Z,6.20
2022-10-19T06:06:19.748Z,5.40
2022-10-19T06:07:19.941Z,5.00
2022-10-19T06:08:20.122Z,6.00
2022-10-19T06:09:20.291Z,6.50
2022-10-19T06:10:20.469Z,7.10
2022-10-19T06:11:20.646Z,5.50
2022-10-19T06:12:24.273Z,6.00
2022-10-19T06:13:20.990Z,12.20
2022-10-19T06:14:21.184Z,10.00
2022-10-19T06:15:21.349Z,7.00
2022-10-19T06:16:21.521Z,7.30
2022-10-19T06:17:21.716Z,6.90
2022-10-19T06:18:21.882Z,10.00
2022-10-19T06:19:22.074Z,9.60
2022-10-19T06:20:22.252Z,8.10
2022-10-19T06:21:22.422Z,8.10
2022-10-19T06:22:22.623Z,7.90
2022-10-19T06:23:22.773Z,8.20
2022-10-19T06:24:22.941Z,8.20
2022-10-19T06:25:23.114Z,9.80
2022-10-19T06:26:23.295Z,8.10
2022-10-19T06:27:23.563Z,10.30
2022-10-19T06:28:23.669Z,8.70
2022-10-19T06:29:23.845Z,9.00
2022-10-19T06:30:24.036Z,8.10
2022-10-19T06:31:24.205Z,7.80
2022-10-19T06:32:24.418Z,7.90
2022-10-19T06:33:24.556Z,7.50
2022-10-19T06:34:24.770Z,7.50
2022-10-19T06:35:24.896Z,7.80
2022-10-19T06:36:25.077Z,8.10
2022-10-19T06:37:25.266Z,7.10
2022-10-19T06:38:25.467Z,7.00
2022-10-19T06:39:25.611Z,7.10
2022-10-19T06:40:25.792Z,6.50
2022-10-19T06:41:25.949Z,6.50
2022-10-19T06:42:26.139Z,6.90
2022-10-19T06:43:26.339Z,6.60
2022-10-19T06:44:26.509Z,5.30
2022-10-19T06:45:26.689Z,5.90
2022-10-19T06:46:26.863Z,7.70
2022-10-19T06:47:27.054Z,6.10
2022-10-19T06:48:27.229Z,5.90
2022-10-19T06:49:27.413Z,9.70
2022-10-19T06:50:27.607Z,6.00
2022-10-19T06:51:27.760Z,7.80
2022-10-19T06:52:27.931Z,8.20
2022-10-19T06:53:28.112Z,6.00
2022-10-19T06:54:28.271Z,6.20
2022-10-19T06:55:28.421Z,5.80
2022-10-19T06:56:28.612Z,6.00
2022-10-19T06:57:28.793Z,5.30
2022-10-19T06:58:29.003Z,6.00
2022-10-19T06:59:29.173Z,3.60
2022-10-19T07:00:29.436Z,3.90
2022-10-19T07:01:29.577Z,3.80
2022-10-19T07:02:29.693Z,5.80
2022-10-19T07:03:29.893Z,4.90
2022-10-19T07:04:30.055Z,6.10
2022-10-19T07:05:30.224Z,4.80
2022-10-19T07:06:30.414Z,4.20
2022-10-19T07:07:30.705Z,4.20
2022-10-19T07:08:30.750Z,6.30
2022-10-19T07:09:30.918Z,4.10
2022-10-19T07:10:31.076Z,5.70
2022-10-19T07:11:31.238Z,7.70
2022-10-19T07:12:31.422Z,4.00
2022-10-19T07:13:31.631Z,4.00
2022-10-19T07:14:31.783Z,4.60
2022-10-19T07:15:31.934Z,5.40
2022-10-19T07:16:32.121Z,4.40
2022-10-19T07:17:32.806Z,4.20
2022-10-19T07:18:32.488Z,4.20
2022-10-19T07:19:32.634Z,5.50
2022-10-19T07:20:32.827Z,3.90
2022-10-19T07:21:33.013Z,4.50
2022-10-19T07:22:33.189Z,4.50
2022-10-19T07:23:33.398Z,4.00
2022-10-19T07:24:33.569Z,4.30
2022-10-19T07:25:33.761Z,3.80
2022-10-19T07:26:33.953Z,3.70
2022-10-19T07:27:37.592Z,2.80
2022-10-19T07:28:34.281Z,4.80
2022-10-19T07:29:34.421Z,5.20
2022-10-19T07:30:34.612Z,7.00
2022-10-19T07:31:34.762Z,4.80
2022-10-19T07:32:34.952Z,5.40
2022-10-19T07:33:35.152Z,3.60
2022-10-19T07:34:35.309Z,5.10
2022-10-19T07:35:35.452Z,3.90
2022-10-19T07:36:35.663Z,4.50
2022-10-19T07:37:36.157Z,5.70
2022-10-19T07:38:35.974Z,5.00
2022-10-19T07:39:36.155Z,4.10
2022-10-19T07:40:36.344Z,5.90
2022-10-19T07:41:36.555Z,4.00
2022-10-19T07:42:36.717Z,3.60
2022-10-19T07:43:36.889Z,5.40
2022-10-19T07:44:37.034Z,3.90
2022-10-19T07:45:37.216Z,5.20
2022-10-19T07:46:37.427Z,4.50
2022-10-19T07:47:37.551Z,3.60
2022-10-19T07:48:37.737Z,4.10
2022-10-19T07:49:37.880Z,3.10
2022-10-19T07:50:38.067Z,5.10
2022-10-19T07:51:38.237Z,4.10
2022-10-19T07:52:38.741Z,5.50
2022-10-19T07:53:38.587Z,5.80
2022-10-19T07:54:38.769Z,3.70
2022-10-19T07:55:38.949Z,3.70
2022-10-19T07:56:39.150Z,4.70
2022-10-19T07:57:41.543Z,4.40
2022-10-19T07:58:39.509Z,5.00
2022-10-19T07:59:39.691Z,4.50
2022-10-19T08:01:40.111Z,4.50
2022-10-19T08:02:55.971Z,4.30
2022-10-19T08:05:00.222Z,2.90
2022-10-19T08:05:41.752Z,4.20
2022-10-19T08:06:40.963Z,5.00
2022-10-19T08:07:41.103Z,7.10
2022-10-19T08:08:41.377Z,5.50
2022-10-19T08:09:52.566Z,5.40
2022-10-19T08:10:42.621Z,4.90
2022-10-19T08:11:41.802Z,5.00
2022-10-19T08:12:41.991Z,4.60
2022-10-19T08:13:42.189Z,6.60
2022-10-19T08:14:42.325Z,5.50
2022-10-19T08:15:42.517Z,4.40
2022-10-19T08:16:42.680Z,5.10
2022-10-19T08:17:42.826Z,4.80
2022-10-19T08:18:43.027Z,4.40
2022-10-19T08:19:43.435Z,6.80
2022-10-19T08:20:43.328Z,5.30
2022-10-19T08:21:43.516Z,4.00
2022-10-19T08:22:43.708Z,5.50
2022-10-19T08:23:43.916Z,3.90
2022-10-19T08:24:44.058Z,5.10
2022-10-19T08:25:44.250Z,4.30
2022-10-19T08:26:44.441Z,5.30
2022-10-19T08:27:44.589Z,5.10
2022-10-19T08:28:44.819Z,5.50
2022-10-19T08:29:44.977Z,3.70
2022-10-19T08:30:45.150Z,5.00
2022-10-19T08:31:45.370Z,5.10
2022-10-19T08:32:45.534Z,5.00
2022-10-19T08:33:45.730Z,5.20
2022-10-19T08:34:45.870Z,4.00
2022-10-19T08:35:46.051Z,4.70
2022-10-19T08:36:46.247Z,3.70
2022-10-19T08:37:46.715Z,4.30
2022-10-19T08:38:46.632Z,5.30
2022-10-19T08:39:46.773Z,4.40
2022-10-19T08:40:46.952Z,3.30
2022-10-19T08:42:47.303Z,3.60
2022-10-19T08:43:47.478Z,3.30
2022-10-19T08:44:47.665Z,5.10
2022-10-19T08:45:47.878Z,4.80
2022-10-19T08:46:48.037Z,2.80
2022-10-19T08:47:48.236Z,3.40
2022-10-19T08:48:48.376Z,3.50
2022-10-19T08:49:48.575Z,4.10
2022-10-19T08:50:48.745Z,2.90
2022-10-19T08:51:48.965Z,3.80
2022-10-19T08:52:49.102Z,3.50
2022-10-19T08:53:49.306Z,3.90
2022-10-19T08:54:49.449Z,4.40
2022-10-19T08:55:49.628Z,3.90
2022-10-19T08:56:51.698Z,4.20
2022-10-19T08:57:49.982Z,4.10
2022-10-19T08:58:50.176Z,3.60
2022-10-19T08:59:50.332Z,4.10
2022-10-19T09:00:50.510Z,3.20
2022-10-19T09:01:50.726Z,3.00
2022-10-19T09:02:50.881Z,4.40
2022-10-19T09:03:55.471Z,3.20
2022-10-19T09:04:52.191Z,3.10
2022-10-19T09:05:51.381Z,2.00
2022-10-19T09:06:51.573Z,4.30
2022-10-19T09:07:51.750Z,3.50
2022-10-19T09:08:52.010Z,3.20
2022-10-19T09:09:52.095Z,4.20
2022-10-19T09:10:52.286Z,4.60
2022-10-19T09:11:52.494Z,3.60
2022-10-19T09:12:55.026Z,4.00
2022-10-19T09:14:04.579Z,4.90
2022-10-19T09:14:53.972Z,3.50
2022-10-19T09:15:53.133Z,4.10
2022-10-19T09:16:53.344Z,3.40
2022-10-19T09:17:53.483Z,4.40
2022-10-19T09:19:53.859Z,3.00
2022-10-19T09:20:54.015Z,4.50
2022-10-19T09:21:54.196Z,2.80
2022-10-19T09:22:54.350Z,4.30
2022-10-19T09:23:54.515Z,4.20
2022-10-19T09:24:54.696Z,3.70
2022-10-19T09:25:54.863Z,4.70
2022-10-19T09:26:55.039Z,3.10
2022-10-19T09:27:55.239Z,4.40
2022-10-19T09:28:55.368Z,3.40
2022-10-19T09:29:55.538Z,5.60
2022-10-19T09:30:55.718Z,4.00
2022-10-19T09:31:55.928Z,3.40
2022-10-19T09:32:56.069Z,3.70
2022-10-19T09:33:56.229Z,4.10
2022-10-19T09:34:56.419Z,4.40
2022-10-19T09:35:56.620Z,4.00
2022-10-19T09:36:56.769Z,3.50
2022-10-19T09:37:56.934Z,4.20
2022-10-19T09:38:57.120Z,2.90
2022-10-19T09:39:57.283Z,3.60
2022-10-19T09:40:57.448Z,3.70
2022-10-19T09:41:57.626Z,3.30
2022-10-19T09:42:57.792Z,3.50
2022-10-19T09:43:57.954Z,2.60
2022-10-19T09:44:58.124Z,5.00
2022-10-19T09:45:58.282Z,5.20
2022-10-19T09:46:58.480Z,3.20
2022-10-19T09:48:06.929Z,4.00
2022-10-19T09:48:59.824Z,4.90
2022-10-19T09:49:59.010Z,3.90
2022-10-19T09:50:59.195Z,4.00
2022-10-19T09:51:59.386Z,4.90
2022-10-19T09:52:59.534Z,2.50
2022-10-19T09:53:59.708Z,5.20
2022-10-19T09:54:59.909Z,4.40
2022-10-19T09:56:00.081Z,4.30
2022-10-19T09:57:00.277Z,4.80
2022-10-19T09:58:00.438Z,4.50
2022-10-19T09:59:00.606Z,4.70
2022-10-19T10:00:00.777Z,5.00
2022-10-19T10:01:00.966Z,4.10
2022-10-19T10:02:04.145Z,4.30
2022-10-19T10:03:01.313Z,3.70
2022-10-19T10:04:01.499Z,3.20
2022-10-19T10:05:01.681Z,5.20
2022-10-19T10:06:01.894Z,4.50
2022-10-19T10:07:02.055Z,4.20
2022-10-19T10:08:02.210Z,3.60
2022-10-19T10:09:02.534Z,3.50
2022-10-19T10:10:02.587Z,3.80
2022-10-19T10:11:02.772Z,5.30
2022-10-19T10:12:02.932Z,3.70
2022-10-19T10:13:03.134Z,4.50
2022-10-19T10:14:05.037Z,3.40
2022-10-19T10:15:04.463Z,4.20
2022-10-19T10:16:03.643Z,4.70
2022-10-19T10:17:03.822Z,3.80
2022-10-19T10:18:03.973Z,5.20
2022-10-19T10:19:04.124Z,5.20
2022-10-19T10:20:04.274Z,4.40
2022-10-19T10:21:06.803Z,3.90
2022-10-19T10:22:04.649Z,5.20
2022-10-19T10:23:04.816Z,3.40
2022-10-19T10:24:04.986Z,2.50
2022-10-19T10:25:05.171Z,4.00
2022-10-19T10:26:05.357Z,4.40
2022-10-19T10:27:05.514Z,5.00
2022-10-19T10:28:05.794Z,5.40
2022-10-19T10:29:05.887Z,4.10
2022-10-19T10:30:06.067Z,6.50
2022-10-19T10:31:06.259Z,6.80
2022-10-19T10:32:06.447Z,4.40
2022-10-19T10:33:16.064Z,7.50
2022-10-19T10:34:22.496Z,10.80
2022-10-19T10:35:07.973Z,10.60
2022-10-19T10:36:07.149Z,8.40
2022-10-19T10:37:07.325Z,8.80
2022-10-19T10:38:07.491Z,8.70
2022-10-19T10:39:07.639Z,8.30
2022-10-19T10:40:07.849Z,9.10
2022-10-19T10:41:07.993Z,11.70
2022-10-19T10:43:05.808Z,12.70
2022-10-19T10:44:05.968Z,12.10
2022-10-19T10:45:06.136Z,9.00
2022-10-19T10:46:06.310Z,16.30
2022-10-19T10:47:06.471Z,9.80
2022-10-19T10:49:06.833Z,9.50
2022-10-19T10:50:07.001Z,13.40
2022-10-19T10:51:07.187Z,12.20
2022-10-19T10:52:07.374Z,9.50
2022-10-19T10:53:07.563Z,11.40
2022-10-19T10:54:07.699Z,9.10
2022-10-19T10:55:07.936Z,11.60
2022-10-19T10:56:08.061Z,9.40
2022-10-19T10:57:08.420Z,14.00
2022-10-19T10:58:08.431Z,10.10
2022-10-19T10:59:08.636Z,9.50
2022-10-19T11:00:08.754Z,7.20
2022-10-19T11:01:08.960Z,9.60
2022-10-19T11:02:09.168Z,9.20
2022-10-19T11:03:09.302Z,9.60
2022-10-19T11:04:09.461Z,9.10
2022-10-19T11:05:09.609Z,8.80
2022-10-19T11:06:09.809Z,9.20
2022-10-19T11:07:09.975Z,7.80
2022-10-19T11:08:10.196Z,7.00
2022-10-19T11:09:10.370Z,7.60
2022-10-19T11:10:10.501Z,8.80
2022-10-19T11:11:10.677Z,7.60
2022-10-19T11:12:10.857Z,8.20
2022-10-19T11:13:11.744Z,8.70
2022-10-19T11:14:11.190Z,8.50
2022-10-19T11:15:11.339Z,8.00
2022-10-19T11:16:11.550Z,7.40
2022-10-19T11:17:11.679Z,8.80
2022-10-19T11:18:11.910Z,6.90
2022-10-19T11:19:12.148Z,6.70
2022-10-19T11:20:12.220Z,5.90
2022-10-19T11:21:12.401Z,8.00
2022-10-19T11:22:12.616Z,7.30
2022-10-19T11:23:12.797Z,6.60
2022-10-19T11:24:13.010Z,6.50
2022-10-19T11:25:13.130Z,7.40
2022-10-19T11:26:13.314Z,6.20
2022-10-19T11:27:13.504Z,6.70
2022-10-19T11:28:13.689Z,5.80
2022-10-19T11:29:13.850Z,6.80
2022-10-19T11:30:14.089Z,7.10
2022-10-19T11:31:14.187Z,7.00
2022-10-19T11:32:14.338Z,6.20
2022-10-19T11:33:14.526Z,6.40
2022-10-19T11:34:16.169Z,6.10
2022-10-19T11:35:14.875Z,7.80
2022-10-19T11:36:15.015Z,4.70
2022-10-19T11:37:15.176Z,5.50
2022-10-19T11:38:20.399Z,6.20
2022-10-19T11:39:16.528Z,5.30
2022-10-19T11:40:19.849Z,5.50
2022-10-19T11:41:18.275Z,3.60
2022-10-19T11:42:16.033Z,6.70
2022-10-19T11:43:16.219Z,5.40
2022-10-19T11:44:16.443Z,5.20
2022-10-19T11:45:16.579Z,5.80
2022-10-19T11:46:16.754Z,4.70
2022-10-19T11:47:16.920Z,6.00
2022-10-19T11:48:17.208Z,5.40
2022-10-19T11:49:17.281Z,4.00
2022-10-19T11:50:17.443Z,4.90
2022-10-19T11:51:21.664Z,6.30
2022-10-19T11:52:17.819Z,5.50
2022-10-19T11:53:17.934Z,5.30
2022-10-19T11:54:18.125Z,5.30
2022-10-19T11:55:18.303Z,4.60
2022-10-19T11:56:18.486Z,4.20
2022-10-19T11:57:18.641Z,5.90
2022-10-19T11:58:18.942Z,6.10
2022-10-19T11:59:19.037Z,5.10
2022-10-19T12:00:38.147Z,4.70
2022-10-19T12:01:20.367Z,4.60
2022-10-19T12:02:19.627Z,5.60
2022-10-19T12:03:19.737Z,4.30
2022-10-19T12:04:19.914Z,4.20
2022-10-19T12:05:20.046Z,4.90
2022-10-19T12:06:20.242Z,3.50
2022-10-19T12:07:20.455Z,4.30
2022-10-19T12:08:20.593Z,3.60
2022-10-19T12:09:20.873Z,3.50
2022-10-19T12:10:20.938Z,3.20
2022-10-19T12:11:21.135Z,3.80
2022-10-19T12:12:21.242Z,3.40
2022-10-19T12:13:21.394Z,4.00
2022-10-19T12:14:21.592Z,4.60
2022-10-19T12:15:21.733Z,3.10
2022-10-19T12:16:21.943Z,4.30
2022-10-19T12:17:22.098Z,3.80
2022-10-19T12:18:22.415Z,3.80
2022-10-19T12:19:22.455Z,3.30
2022-10-19T12:20:22.616Z,4.30
2022-10-19T12:21:22.877Z,3.80
2022-10-19T12:22:22.917Z,4.30
2022-10-19T12:23:23.119Z,4.30
2022-10-19T12:24:23.288Z,5.30
2022-10-19T12:25:23.437Z,7.00
2022-10-19T12:26:23.638Z,6.80
2022-10-19T12:27:23.782Z,5.70
2022-10-19T12:28:23.939Z,3.90
2022-10-19T12:29:24.137Z,4.60
2022-10-19T12:30:24.278Z,5.40
2022-10-19T12:31:24.457Z,4.60
2022-10-19T12:32:24.688Z,4.30
2022-10-19T12:33:24.834Z,4.70
2022-10-19T12:34:25.015Z,5.10
2022-10-19T12:35:25.191Z,4.80
2022-10-19T12:36:25.353Z,4.10
2022-10-19T12:37:25.546Z,3.70
2022-10-19T12:38:25.722Z,3.30
2022-10-19T12:39:25.869Z,3.70
2022-10-19T12:40:26.022Z,4.40
2022-10-19T12:41:26.208Z,4.70
2022-10-19T12:42:26.372Z,4.00
2022-10-19T12:43:26.569Z,4.10
2022-10-19T12:44:26.727Z,4.70
2022-10-19T12:45:26.915Z,3.50
2022-10-19T12:46:27.065Z,5.10
2022-10-19T12:47:27.276Z,3.10
2022-10-19T12:48:27.446Z,3.00
2022-10-19T12:49:27.586Z,3.90
2022-10-19T12:50:27.776Z,3.90
2022-10-19T12:51:27.967Z,3.90
2022-10-19T12:52:28.148Z,10.80
2022-10-19T12:53:28.349Z,9.60
2022-10-19T12:54:28.499Z,8.90
2022-10-19T12:55:28.657Z,9.30
2022-10-19T12:56:28.850Z,7.80
2022-10-19T12:57:29.008Z,7.20
2022-10-19T12:58:29.209Z,5.70
2022-10-19T12:59:29.349Z,8.60
2022-10-19T13:00:29.520Z,5.20
2022-10-19T13:01:29.683Z,5.90
2022-10-19T13:02:29.923Z,6.20
2022-10-19T13:03:30.046Z,6.90
2022-10-19T13:04:30.206Z,7.40
2022-10-19T13:05:30.339Z,7.60
2022-10-19T13:06:30.534Z,8.60
2022-10-19T13:07:30.682Z,6.10
2022-10-19T13:08:30.948Z,6.20
2022-10-19T13:09:31.073Z,6.90
2022-10-19T13:10:31.248Z,4.90
2022-10-19T13:11:31.455Z,5.80
2022-10-19T13:12:31.564Z,6.10
2022-10-19T13:13:31.782Z,4.90
2022-10-19T13:14:31.904Z,6.90
2022-10-19T13:15:32.085Z,7.20
2022-10-19T13:16:32.272Z,6.20
2022-10-19T13:17:34.082Z,6.60
2022-10-19T13:18:32.658Z,6.80
2022-10-19T13:19:32.803Z,5.70
2022-10-19T13:20:33.315Z,6.00
2022-10-19T13:21:33.208Z,4.50
2022-10-19T13:22:33.591Z,5.50
2022-10-19T13:23:33.532Z,5.20
2022-10-19T13:24:33.702Z,5.20
2022-10-19T13:25:33.859Z,4.90
2022-10-19T13:26:34.033Z,5.00